createdAt,value
2019-02-26T00:01:50.717Z,38.77
2019-02-26T00:06:55.800Z,45.27
2019-02-26T00:12:01.524Z,48.47
2019-02-26T00:17:08.729Z,49.43
2019-02-26T00:22:13.869Z,51.57
2019-02-26T00:27:18.831Z,42.63
2019-02-26T00:32:23.565Z,39.30
2019-02-26T00:37:28.424Z,37.93
2019-02-26T00:42:36.056Z,40.70
2019-02-26T00:47:41.174Z,38.97
2019-02-26T00:52:47.038Z,34.57
2019-02-26T00:57:51.785Z,32.07
2019-02-26T01:02:56.524Z,37.40
2019-02-26T01:08:01.174Z,44.43
2019-02-26T01:13:07.266Z,37.13
2019-02-26T01:18:12.284Z,41.70
2019-02-26T01:23:18.729Z,32.13
2019-02-26T01:28:24.832Z,28.20
2019-02-26T01:33:30.283Z,26.67
2019-02-26T01:38:37.438Z,26.63
2019-02-26T01:43:41.938Z,27.77
2019-02-26T01:48:46.679Z,27.93
2019-02-26T01:53:53.271Z,26.30
2019-02-26T01:59:02.150Z,27.50
2019-02-26T02:04:03.887Z,28.47
2019-02-26T02:09:11.340Z,30.60
2019-02-26T02:14:17.065Z,26.33
2019-02-26T02:19:23.399Z,26.50
2019-02-26T02:24:28.275Z,26.33
2019-02-26T02:29:33.899Z,24.37
2019-02-26T02:34:40.037Z,25.47
2019-02-26T02:39:44.973Z,24.73
2019-02-26T02:44:52.564Z,24.80
2019-02-26T02:49:55.896Z,25.10
2019-02-26T02:55:00.722Z,61.10
2019-02-26T03:00:13.962Z,25.67
2019-02-26T03:05:18.810Z,27.10
2019-02-26T03:10:26.017Z,37.83
2019-02-26T03:15:32.782Z,33.57
2019-02-26T03:20:39.805Z,32.67
2019-02-26T03:25:44.517Z,32.70
2019-02-26T03:30:49.683Z,43.27
2019-02-26T03:35:54.441Z,35.80
2019-02-26T03:41:01.161Z,34.50
2019-02-26T03:46:05.451Z,31.87
2019-02-26T03:51:10.186Z,32.00
2019-02-26T03:56:17.068Z,30.00
2019-02-26T04:01:21.558Z,28.77
2019-02-26T04:06:26.363Z,29.40
2019-02-26T04:11:31.002Z,25.17
2019-02-26T04:16:37.780Z,24.90
2019-02-26T04:22:21.001Z,23.50
2019-02-26T04:27:48.098Z,22.27
2019-02-26T04:33:14.059Z,27.63
2019-02-26T04:38:34.241Z,27.13
2019-02-26T04:43:47.813Z,33.50
2019-02-26T04:48:52.644Z,39.70
2019-02-26T04:53:59.480Z,55.77
2019-02-26T04:59:06.208Z,59.47
2019-02-26T05:04:10.038Z,50.43
2019-02-26T05:09:15.954Z,55.13
2019-02-26T05:14:23.425Z,59.43
2019-02-26T05:19:27.129Z,61.37
2019-02-26T05:24:31.873Z,54.07
2019-02-26T05:29:40.418Z,52.27
2019-02-26T05:34:45.348Z,50.33
2019-02-26T05:39:51.692Z,60.40
2019-02-26T05:44:59.077Z,61.00
2019-02-26T05:50:03.806Z,69.00
2019-02-26T05:55:08.835Z,80.07
2019-02-26T06:00:18.220Z,76.03
2019-02-26T06:05:23.255Z,66.23
2019-02-26T06:10:29.841Z,60.10
2019-02-26T06:15:34.938Z,65.07
2019-02-26T06:20:40.003Z,60.37
2019-02-26T06:25:44.725Z,60.40
2019-02-26T06:30:50.585Z,53.47
2019-02-26T06:35:59.839Z,56.90
2019-02-26T06:41:06.557Z,49.10
2019-02-26T06:46:12.284Z,52.77
2019-02-26T06:51:19.081Z,41.03
2019-02-26T06:56:23.960Z,39.13
2019-02-26T07:01:32.376Z,35.03
2019-02-26T07:06:38.658Z,33.20
2019-02-26T07:11:43.408Z,33.77
2019-02-26T07:16:48.149Z,37.00
2019-02-26T07:21:53.081Z,34.70
2019-02-26T07:26:58.863Z,34.33
2019-02-26T07:32:03.507Z,35.83
2019-02-26T07:37:09.333Z,34.13
2019-02-26T07:42:16.430Z,25.47
2019-02-26T07:47:22.108Z,23.40
2019-02-26T07:52:28.444Z,25.47
2019-02-26T07:57:33.259Z,23.03
2019-02-26T08:02:38.001Z,24.20
2019-02-26T08:07:44.422Z,20.00
2019-02-26T08:12:48.795Z,26.07
2019-02-26T08:17:57.364Z,23.47
2019-02-26T08:23:01.360Z,21.10
2019-02-26T08:28:07.069Z,23.70
2019-02-26T08:33:11.711Z,28.07
2019-02-26T08:38:16.414Z,22.33
2019-02-26T08:43:21.309Z,25.40
2019-02-26T08:48:27.008Z,20.63
2019-02-26T08:53:32.251Z,18.77
2019-02-26T08:58:40.629Z,26.40
2019-02-26T09:03:45.540Z,19.60
2019-02-26T09:08:51.059Z,19.63
2019-02-26T09:13:59.617Z,20.03
2019-02-26T09:19:05.280Z,24.67
2019-02-26T09:24:10.166Z,20.37
2019-02-26T09:29:17.326Z,19.33
2019-02-26T09:34:26.025Z,18.60
2019-02-26T09:39:29.463Z,16.60
2019-02-26T09:44:35.916Z,20.47
2019-02-26T09:49:41.151Z,16.03
2019-02-26T09:54:48.104Z,26.70
2019-02-26T09:59:54.669Z,20.13
2019-02-26T10:04:58.615Z,14.57
2019-02-26T10:10:05.448Z,13.97
2019-02-26T10:15:13.849Z,13.67
2019-02-26T10:20:22.809Z,9.93
2019-02-26T10:25:29.376Z,11.73
2019-02-26T10:30:38.298Z,9.03
2019-02-26T10:35:45.085Z,7.83
2019-02-26T10:40:53.965Z,7.17
2019-02-26T10:45:56.670Z,10.50
2019-02-26T10:51:06.030Z,7.80
2019-02-26T10:56:09.637Z,15.27
2019-02-26T11:01:14.387Z,18.73
2019-02-26T11:06:19.652Z,18.37
2019-02-26T11:11:24.786Z,17.43
2019-02-26T11:16:31.035Z,15.80
2019-02-26T11:21:36.421Z,18.93
2019-02-26T11:26:45.534Z,15.53
2019-02-26T11:31:51.251Z,14.87
2019-02-26T11:37:02.795Z,15.23
2019-02-26T11:42:11.547Z,12.67
2019-02-26T11:47:20.533Z,11.77
2019-02-26T11:52:24.641Z,10.33
2019-02-26T11:57:30.222Z,10.90
2019-02-26T12:02:37.055Z,10.10
2019-02-26T12:07:42.852Z,14.57
2019-02-26T12:12:48.412Z,10.63
2019-02-26T12:17:54.546Z,11.10
2019-02-26T12:23:00.174Z,14.53
2019-02-26T12:28:10.767Z,11.17
2019-02-26T12:33:18.119Z,11.87
2019-02-26T12:38:25.250Z,21.07
2019-02-26T12:43:33.230Z,8.13
2019-02-26T12:48:41.801Z,6.63
2019-02-26T12:53:49.153Z,10.03
2019-02-26T12:58:54.440Z,8.63
2019-02-26T13:03:57.876Z,10.17
2019-02-26T13:09:02.736Z,10.13
2019-02-26T13:14:09.017Z,13.40
2019-02-26T13:19:21.408Z,12.17
2019-02-26T13:24:26.100Z,8.10
2019-02-26T13:29:28.155Z,11.37
2019-02-26T13:34:32.896Z,9.20
2019-02-26T13:39:38.446Z,13.93
2019-02-26T13:44:44.118Z,71.90
2019-02-26T13:49:48.964Z,25.73
2019-02-26T13:54:57.196Z,29.33
2019-02-26T14:00:01.838Z,12.27
2019-02-26T14:05:10.359Z,20.53
2019-02-26T14:10:26.681Z,24.00
2019-02-26T14:15:35.898Z,18.53
2019-02-26T14:20:40.663Z,32.93
2019-02-26T14:25:47.492Z,33.43
2019-02-26T14:30:54.120Z,38.60
2019-02-26T14:35:59.705Z,23.13
2019-02-26T14:41:04.920Z,29.70
2019-02-26T14:46:09.711Z,28.47
2019-02-26T14:51:14.551Z,15.93
2019-02-26T14:56:21.614Z,18.53
2019-02-26T15:01:27.954Z,19.47
2019-02-26T15:06:34.104Z,27.60
2019-02-26T15:11:41.031Z,28.93
2019-02-26T15:16:48.057Z,22.13
2019-02-26T15:21:54.672Z,19.30
2019-02-26T15:26:59.637Z,20.70
2019-02-26T15:32:04.263Z,26.43
2019-02-26T15:37:09.324Z,25.67
2019-02-26T15:42:20.951Z,35.10
2019-02-26T15:47:30.468Z,22.60
2019-02-26T15:52:36.335Z,29.23
2019-02-26T15:57:41.402Z,20.83
2019-02-26T16:02:47.686Z,24.30
2019-02-26T16:07:55.426Z,8.90
2019-02-26T16:13:04.802Z,24.60
2019-02-26T16:18:11.087Z,29.87
2019-02-26T16:23:15.872Z,20.93
2019-02-26T16:28:20.925Z,26.47
2019-02-26T16:33:27.202Z,31.17
2019-02-26T16:38:32.044Z,32.10
2019-02-26T16:43:38.344Z,11.97
2019-02-26T16:48:44.707Z,13.50
2019-02-26T16:53:49.550Z,13.40
2019-02-26T16:58:54.218Z,10.53
2019-02-26T17:03:59.550Z,10.47
2019-02-26T17:09:06.350Z,11.07
2019-02-26T17:14:14.767Z,11.40
2019-02-26T17:19:19.721Z,12.23
2019-02-26T17:24:24.803Z,13.50
2019-02-26T17:29:32.483Z,14.90
2019-02-26T17:34:42.742Z,14.03
2019-02-26T17:39:49.454Z,14.23
2019-02-26T17:44:55.111Z,15.20
2019-02-26T17:50:02.787Z,15.53
2019-02-26T17:55:10.331Z,15.20
2019-02-26T18:00:21.348Z,17.07
2019-02-26T18:05:26.166Z,15.10
2019-02-26T18:10:31.216Z,15.83
2019-02-26T18:15:36.081Z,18.67
2019-02-26T18:20:41.489Z,26.50
2019-02-26T18:25:46.172Z,17.00
2019-02-26T18:30:51.319Z,31.93
2019-02-26T18:35:56.588Z,24.27
2019-02-26T18:41:01.410Z,26.17
2019-02-26T18:46:06.262Z,33.13
2019-02-26T18:51:14.315Z,31.17
2019-02-26T18:56:19.552Z,29.83
2019-02-26T19:01:24.579Z,31.80
2019-02-26T19:06:29.324Z,16.60
2019-02-26T19:11:34.164Z,15.13
2019-02-26T19:16:38.911Z,17.33
2019-02-26T19:21:44.455Z,15.80
2019-02-26T19:26:49.211Z,17.77
2019-02-26T19:31:54.160Z,16.23
2019-02-26T19:37:00.542Z,18.27
2019-02-26T19:42:06.788Z,18.33
2019-02-26T19:47:11.582Z,18.33
2019-02-26T19:52:18.981Z,17.63
2019-02-26T19:57:30.188Z,19.97
2019-02-26T20:02:38.294Z,17.53
2019-02-26T20:07:45.793Z,19.60
2019-02-26T20:12:51.666Z,17.30
2019-02-26T20:17:58.059Z,16.57
2019-02-26T20:23:05.202Z,17.83
2019-02-26T20:28:09.368Z,17.50
2019-02-26T20:33:14.231Z,15.57
2019-02-26T20:38:19.527Z,16.13
2019-02-26T20:43:25.950Z,17.80
2019-02-26T20:48:30.915Z,16.60
2019-02-26T20:53:38.836Z,17.90
2019-02-26T20:58:44.937Z,16.37
2019-02-26T21:03:52.307Z,16.93
2019-02-26T21:08:57.145Z,17.10
2019-02-26T21:14:02.974Z,16.47
2019-02-26T21:19:07.991Z,15.97
2019-02-26T21:24:12.912Z,17.73
2019-02-26T21:29:17.751Z,16.43
2019-02-26T21:34:22.500Z,18.03
2019-02-26T21:39:27.348Z,17.80
2019-02-26T21:44:32.094Z,17.83
2019-02-26T21:49:37.395Z,17.07
2019-02-26T21:54:42.874Z,16.37
2019-02-26T21:59:50.187Z,15.40
2019-02-26T22:04:55.788Z,17.03
2019-02-26T22:10:00.628Z,15.53
2019-02-26T22:15:10.001Z,14.83
2019-02-26T22:20:23.418Z,14.13
2019-02-26T22:25:21.905Z,16.20
2019-02-26T22:30:28.425Z,16.07
2019-02-26T22:35:32.929Z,15.20
2019-02-26T22:40:37.667Z,15.30
2019-02-26T22:45:42.411Z,16.13
2019-02-26T22:50:47.151Z,14.80
2019-02-26T22:55:51.997Z,14.93
2019-02-26T23:01:01.119Z,14.23
2019-02-26T23:06:07.427Z,15.13
2019-02-26T23:11:14.854Z,17.80
2019-02-26T23:16:20.634Z,18.43
2019-02-26T23:21:26.072Z,22.70
2019-02-26T23:26:32.388Z,22.07
2019-02-26T23:31:37.181Z,21.20
2019-02-26T23:36:43.457Z,21.77
2019-02-26T23:41:49.233Z,19.53
2019-02-26T23:46:53.968Z,19.17
2019-02-26T23:51:59.577Z,17.17
2019-02-26T23:57:04.375Z,16.63
